Time;durP1;ratioP1;P1;durP2;ratioP2;P2;SDS_P1;SDS_P2;PMS_P1;PMS_P2;Temp;Humidity;BMP_temperature;BMP_pressure;BME280_temperature;BME280_humidity;BME280_pressure;Samples;Min_cycle;Max_cycle;Signal;HPM_P1;HPM_P2
2022/04/11 00:01:03;;;;;;;;;8.00;8.00;;;;;8.26;57.78;100679.19;5076346;27;45477;-61
2022/04/11 00:03:29;;;;;;;;;5.50;5.50;;;;;8.24;57.54;100678.38;5075672;28;45361;-61
2022/04/11 00:05:55;;;;;;;;;9.25;8.00;;;;;8.23;58.10;100678.44;5076460;27;45548;-61
2022/04/11 00:08:21;;;;;;;;;7.25;6.00;;;;;8.19;58.31;100673.28;5075544;27;46577;-62
2022/04/11 00:10:47;;;;;;;;;6.00;6.00;;;;;8.19;58.09;100665.44;5076323;27;45807;-61
2022/04/11 00:13:12;;;;;;;;;6.50;5.00;;;;;8.20;58.08;100674.13;5076136;27;45494;-61
2022/04/11 00:15:40;;;;;;;;;6.75;6.75;;;;;8.18;57.85;100660.22;5076483;27;45541;-61
2022/04/11 00:18:06;;;;;;;;;8.50;7.00;;;;;8.19;58.05;100669.81;5075683;27;45530;-61
2022/04/11 00:20:32;;;;;;;;;9.00;8.00;;;;;8.17;58.34;100668.97;5075360;28;45360;-61
2022/04/11 00:22:57;;;;;;;;;5.75;5.75;;;;;8.17;58.33;100668.97;5075363;28;45327;-62
2022/04/11 00:25:23;;;;;;;;;6.00;5.00;;;;;8.15;58.24;100665.56;5076125;27;45561;-62
2022/04/11 00:27:49;;;;;;;;;7.50;6.00;;;;;8.13;58.83;100667.34;5075762;27;45238;-62
2022/04/11 00:30:14;;;;;;;;;7.75;6.50;;;;;8.10;58.13;100656.97;5075870;27;45358;-61
2022/04/11 00:32:40;;;;;;;;;7.50;7.50;;;;;8.07;58.17;100652.69;5075291;27;45402;-62
2022/04/11 00:35:08;;;;;;;;;10.25;6.00;;;;;8.02;57.99;100644.09;5075952;27;45576;-62
2022/04/11 00:37:33;;;;;;;;;9.00;7.50;;;;;8.03;58.66;100630.09;5070635;27;48206;-63
2022/04/11 00:39:58;;;;;;;;;7.00;7.00;;;;;8.02;58.10;100637.09;5065000;28;45369;-62
2022/04/11 00:42:27;;;;;;;;;8.00;8.00;;;;;7.99;57.93;100628.47;5074326;28;45422;-62
2022/04/11 00:44:53;;;;;;;;;6.75;6.75;;;;;8.00;58.38;100619.72;5076231;27;45336;-62
2022/04/11 00:47:19;;;;;;;;;5.75;5.75;;;;;7.94;58.43;100615.50;5075449;27;45490;-63
2022/04/11 00:49:46;;;;;;;;;6.00;6.00;;;;;7.94;58.38;100612.00;5075837;27;45676;-62
2022/04/11 00:52:13;;;;;;;;;5.00;4.50;;;;;7.94;59.00;100605.00;5075232;28;45519;-63
2022/04/11 00:54:41;;;;;;;;;4.00;4.00;;;;;7.90;58.79;100598.16;5075834;27;45328;-62
2022/04/11 00:57:07;;;;;;;;;5.75;5.75;;;;;7.90;58.11;100606.00;5075175;27;45402;-62
2022/04/11 00:59:32;;;;;;;;;5.75;5.00;;;;;7.89;58.36;100606.91;5073809;28;45425;-62
2022/04/11 01:02:02;;;;;;;;;11.50;7.00;;;;;7.86;58.75;100594.75;5075004;27;45436;-61
2022/04/11 01:04:28;;;;;;;;;6.50;5.75;;;;;7.86;59.09;100591.28;5075917;27;45227;-61
2022/04/11 01:06:55;;;;;;;;;6.25;6.25;;;;;7.83;59.14;100592.22;5074739;27;46469;-62
2022/04/11 01:09:21;;;;;;;;;6.50;6.00;;;;;7.80;58.95;100583.59;5074713;27;45237;-60
2022/04/11 01:11:46;;;;;;;;;4.50;4.50;;;;;7.76;58.53;100580.19;5074513;27;45534;-63
2022/04/11 01:14:11;;;;;;;;;5.25;5.00;;;;;7.72;58.81;100570.72;5075713;27;45580;-63
2022/04/11 01:16:37;;;;;;;;;6.50;5.25;;;;;7.74;59.10;100566.28;5075164;27;45441;-62
2022/04/11 01:19:02;;;;;;;;;5.00;5.00;;;;;7.72;58.91;100562.88;5074522;27;45736;-62
2022/04/11 01:21:30;;;;;;;;;5.25;5.25;;;;;7.67;59.05;100560.38;5075304;27;45453;-62
2022/04/11 01:23:56;;;;;;;;;5.75;5.75;;;;;7.65;58.56;100556.09;5074822;27;45399;-62
2022/04/11 01:26:22;;;;;;;;;5.50;5.50;;;;;7.66;59.05;100558.69;5075041;27;45425;-65
2022/04/11 01:28:48;;;;;;;;;4.00;4.00;;;;;7.63;58.61;100550.91;5074504;27;45393;-62
2022/04/11 01:31:15;;;;;;;;;5.00;5.00;;;;;7.62;58.36;100543.09;5075164;27;45468;-62
2022/04/11 01:33:41;;;;;;;;;5.00;5.00;;;;;7.60;57.82;100537.91;5075204;28;45586;-62
2022/04/11 01:36:07;;;;;;;;;5.00;5.00;;;;;7.59;58.46;100534.41;5073524;27;47345;-61
2022/04/11 01:38:32;;;;;;;;;5.00;5.00;;;;;7.56;58.03;100536.28;5074437;28;45236;-61
2022/04/11 01:40:58;;;;;;;;;5.00;5.00;;;;;7.55;58.72;100537.19;5075043;28;45450;-61
2022/04/11 01:43:25;;;;;;;;;7.25;4.50;;;;;7.53;58.23;100538.97;5075048;27;45449;-61
2022/04/11 01:45:51;;;;;;;;;5.75;5.75;;;;;7.49;58.54;100529.50;5074948;27;46052;-61
2022/04/11 01:48:17;;;;;;;;;4.00;4.00;;;;;7.45;58.13;100526.97;5074776;28;45761;-61
2022/04/11 01:50:43;;;;;;;;;4.00;4.00;;;;;7.43;58.03;100523.53;5074273;27;45346;-61
2022/04/11 01:53:11;;;;;;;;;4.00;4.00;;;;;7.49;56.94;100534.75;5074597;28;45468;-62
2022/04/11 01:55:36;;;;;;;;;4.00;4.00;;;;;7.46;57.26;100519.97;5074607;27;46029;-63
2022/04/11 01:58:03;;;;;;;;;6.00;5.50;;;;;7.47;58.22;100521.69;5073855;27;45270;-63
2022/04/11 02:00:30;;;;;;;;;5.50;5.00;;;;;7.45;57.33;100513.88;5073947;28;45441;-61
2022/04/11 02:02:55;;;;;;;;;5.00;5.00;;;;;7.45;58.41;100513.88;5074546;27;45396;-61
2022/04/11 02:05:20;;;;;;;;;5.00;5.00;;;;;7.45;57.43;100508.66;5074599;27;45325;-62
2022/04/11 02:07:46;;;;;;;;;5.25;5.00;;;;;7.44;58.32;100512.16;5072995;28;45335;-62
2022/04/11 02:10:11;;;;;;;;;5.00;4.00;;;;;7.43;58.14;100505.22;5073980;27;45431;-62
2022/04/11 02:12:38;;;;;;;;;4.25;4.00;;;;;7.45;58.17;100507.78;5074802;28;45622;-63
2022/04/11 02:15:04;;;;;;;;;4.00;4.00;;;;;7.41;58.75;100504.38;5074824;27;45477;-62
2022/04/11 02:17:30;;;;;;;;;4.00;4.00;;;;;7.42;58.03;100502.63;5073000;28;45445;-63
2022/04/11 02:19:55;;;;;;;;;5.25;5.25;;;;;7.37;57.89;100500.13;5074860;27;45535;-62
2022/04/11 02:22:20;;;;;;;;;9.50;5.50;;;;;7.38;57.53;100498.38;5077817;27;45560;-62
2022/04/11 02:24:46;;;;;;;;;5.75;5.00;;;;;7.34;58.83;100494.97;5077237;27;45433;-62
2022/04/11 02:27:11;;;;;;;;;6.00;4.50;;;;;7.33;58.46;100487.19;5077773;27;45499;-62
2022/04/11 02:29:36;;;;;;;;;5.00;5.00;;;;;7.33;58.14;100490.66;5077507;27;45360;-62
2022/04/11 02:32:02;;;;;;;;;4.00;4.00;;;;;7.30;58.30;100482.88;5077992;28;45614;-61
2022/04/11 02:34:27;;;;;;;;;3.50;3.50;;;;;7.26;58.52;100484.75;5077581;27;45215;-62
2022/04/11 02:36:52;;;;;;;;;6.75;5.00;;;;;7.27;57.84;100489.09;5078100;27;45251;-62
2022/04/11 02:39:18;;;;;;;;;5.50;5.50;;;;;7.26;59.20;100476.03;5076023;27;45322;-61
2022/04/11 02:41:43;;;;;;;;;4.75;4.75;;;;;7.24;57.88;100483.94;5077851;27;45215;-61
2022/04/11 02:44:08;;;;;;;;;5.50;5.50;;;;;7.23;58.33;100477.00;5077329;27;45238;-61
2022/04/11 02:46:34;;;;;;;;;6.00;6.00;;;;;7.22;58.19;100477.00;5077711;27;45356;-62
2022/04/11 02:48:59;;;;;;;;;8.00;7.00;;;;;7.19;58.03;100470.13;5077295;27;45440;-61
2022/04/11 02:51:24;;;;;;;;;5.00;5.00;;;;;7.21;58.34;100480.53;5078009;27;45513;-62
2022/04/11 02:53:50;;;;;;;;;4.00;4.00;;;;;7.15;58.01;100461.50;5076973;27;46295;-61
2022/04/11 02:56:15;;;;;;;;;6.00;4.50;;;;;7.15;58.27;100469.34;5075597;27;45449;-61
2022/04/11 02:58:40;;;;;;;;;6.00;4.00;;;;;7.10;57.78;100455.53;5077273;27;45338;-62
2022/04/11 03:01:06;;;;;;;;;5.00;5.00;;;;;7.10;58.88;100450.31;5077487;27;45251;-61
2022/04/11 03:03:31;;;;;;;;;4.00;4.00;;;;;7.08;58.78;100444.25;5077501;27;45417;-62
2022/04/11 03:05:56;;;;;;;;;6.00;5.00;;;;;7.05;58.03;100431.25;5077631;27;47580;-62
2022/04/11 03:08:21;;;;;;;;;6.00;5.00;;;;;7.06;58.06;100426.91;5077806;27;45248;-61
2022/04/11 03:10:47;;;;;;;;;7.25;5.00;;;;;7.06;58.19;100435.59;5076568;27;45544;-61
2022/04/11 03:13:12;;;;;;;;;6.75;6.75;;;;;7.05;57.77;100427.81;5076609;27;47149;-62
2022/04/11 03:15:37;;;;;;;;;5.50;5.00;;;;;7.04;58.01;100429.53;5077118;27;45353;-62
2022/04/11 03:18:03;;;;;;;;;4.75;4.75;;;;;7.03;58.40;100422.59;5077092;27;45489;-61
2022/04/11 03:20:28;;;;;;;;;3.25;3.25;;;;;7.02;58.64;100415.66;5076221;27;45410;-61
2022/04/11 03:22:53;;;;;;;;;5.00;5.00;;;;;6.99;58.18;100415.75;5076313;27;45409;-62
2022/04/11 03:25:19;;;;;;;;;6.25;6.25;;;;;7.00;57.67;100417.47;5076771;27;45312;-61
2022/04/11 03:27:45;;;;;;;;;5.50;5.50;;;;;6.99;57.95;100428.81;5076390;28;45258;-62
2022/04/11 03:30:11;;;;;;;;;5.00;5.00;;;;;6.95;57.56;100422.84;5075377;28;45361;-61
2022/04/11 03:32:36;;;;;;;;;7.25;5.75;;;;;6.98;58.99;100434.94;5076409;27;45386;-63
2022/04/11 03:35:01;;;;;;;;;5.50;5.50;;;;;6.96;58.47;100429.78;5077062;27;45393;-62
2022/04/11 03:37:27;;;;;;;;;5.00;5.00;;;;;6.95;58.44;100430.69;5076849;27;45259;-62
2022/04/11 03:39:52;;;;;;;;;5.25;4.00;;;;;6.96;58.93;100434.13;5076454;27;45512;-61
2022/04/11 03:42:17;;;;;;;;;5.00;5.00;;;;;6.94;57.95;100422.84;5076168;27;45424;-62
2022/04/11 03:44:43;;;;;;;;;4.00;4.00;;;;;6.93;58.20;100426.38;5076817;27;45244;-62
2022/04/11 03:47:08;;;;;;;;;6.25;6.25;;;;;6.77;59.44;100403.25;5076477;27;45389;-62
2022/04/11 03:49:34;;;;;;;;;3.50;3.50;;;;;6.93;58.74;100421.16;5075251;28;45271;-62
2022/04/11 03:51:59;;;;;;;;;7.25;4.75;;;;;6.93;58.23;100414.16;5076407;27;46385;-61
2022/04/11 03:54:24;;;;;;;;;5.00;5.00;;;;;6.92;58.13;100406.34;5076292;28;45326;-63
2022/04/11 03:56:50;;;;;;;;;6.00;6.00;;;;;6.91;57.97;100404.63;5076452;27;45488;-65
2022/04/11 03:59:15;;;;;;;;;4.25;4.00;;;;;6.89;57.94;100398.59;5076276;27;45326;-62
2022/04/11 04:01:40;;;;;;;;;5.75;5.75;;;;;6.90;58.17;100400.31;5076013;27;45471;-63
2022/04/11 04:04:06;;;;;;;;;8.25;6.75;;;;;6.87;58.00;100396.88;5076107;27;45789;-62
2022/04/11 04:06:32;;;;;;;;;5.75;5.75;;;;;6.85;58.87;100384.75;5076166;27;45345;-64
2022/04/11 04:08:57;;;;;;;;;4.75;4.75;;;;;6.85;58.39;100385.59;5076741;28;45610;-61
2022/04/11 04:11:23;;;;;;;;;5.75;5.75;;;;;6.86;57.95;100389.94;5075760;27;45953;-62
2022/04/11 04:13:48;;;;;;;;;5.50;5.50;;;;;6.83;58.42;100374.34;5075781;27;45453;-62
2022/04/11 04:16:14;;;;;;;;;6.00;6.00;;;;;6.82;58.94;100383.09;5075943;27;45282;-62
2022/04/11 04:18:39;;;;;;;;;6.50;6.50;;;;;6.68;59.00;100353.84;5076421;27;45655;-61
2022/04/11 04:21:05;;;;;;;;;6.25;6.25;;;;;6.82;59.11;100375.25;5075734;27;45630;-62
2022/04/11 04:23:30;;;;;;;;;5.00;5.00;;;;;6.82;58.48;100375.25;5075699;27;45369;-63
2022/04/11 04:25:56;;;;;;;;;7.00;5.75;;;;;6.83;59.40;100374.34;5075693;27;45405;-62
2022/04/11 04:28:21;;;;;;;;;7.50;6.00;;;;;6.81;58.99;100370.03;5076151;27;45445;-61
2022/04/11 04:30:47;;;;;;;;;5.25;5.25;;;;;6.81;57.95;100376.13;5075983;27;45257;-62
2022/04/11 04:33:12;;;;;;;;;5.00;5.00;;;;;6.78;58.29;100371.00;5075248;27;45168;-62
2022/04/11 04:35:38;;;;;;;;;7.00;7.00;;;;;6.75;59.03;100358.00;5075700;27;45467;-61
2022/04/11 04:38:04;;;;;;;;;7.00;5.75;;;;;6.79;59.31;100357.03;5076065;28;45288;-63
2022/04/11 04:40:29;;;;;;;;;6.50;5.25;;;;;6.79;58.58;100362.25;5075877;27;46136;-62
2022/04/11 04:42:55;;;;;;;;;6.25;4.00;;;;;6.75;58.63;100350.16;5074463;27;45452;-62
2022/04/11 04:45:20;;;;;;;;;7.50;5.75;;;;;6.69;58.87;100326.81;5075757;27;45755;-62
2022/04/11 04:47:45;;;;;;;;;6.00;6.00;;;;;6.76;58.53;100336.19;5075686;27;45582;-62
2022/04/11 04:50:11;;;;;;;;;6.00;6.00;;;;;6.73;58.48;100354.59;5075417;27;45605;-62
2022/04/11 04:52:38;;;;;;;;;11.25;9.00;;;;;6.72;59.26;100351.09;5075325;27;45340;-62
2022/04/11 04:55:04;;;;;;;;;6.00;5.75;;;;;6.76;60.77;100357.09;5075300;27;45302;-61
2022/04/11 04:57:30;;;;;;;;;7.00;6.00;;;;;6.76;59.15;100359.72;5075231;27;45192;-63
2022/04/11 04:59:55;;;;;;;;;7.75;6.50;;;;;6.77;59.22;100371.03;5074212;28;45353;-63
2022/04/11 05:02:21;;;;;;;;;5.25;5.25;;;;;6.79;59.06;100382.28;5074720;27;45227;-63
2022/04/11 05:04:46;;;;;;;;;7.00;5.25;;;;;6.79;59.06;100382.28;5074940;27;45293;-62
2022/04/11 05:07:11;;;;;;;;;9.00;9.00;;;;;6.79;60.48;100390.13;5075761;27;45212;-62
2022/04/11 05:09:37;;;;;;;;;11.25;8.00;;;;;6.76;59.03;100392.84;5074628;27;46186;-62
2022/04/11 05:12:03;;;;;;;;;6.75;6.50;;;;;6.77;59.42;100390.19;5058738;28;45360;-63
2022/04/11 05:14:28;;;;;;;;;8.50;7.25;;;;;6.75;59.32;100385.91;5075134;27;45243;-63
2022/04/11 05:16:53;;;;;;;;;7.00;7.00;;;;;6.72;59.23;100371.16;5075576;27;45657;-63
2022/04/11 05:19:19;;;;;;;;;9.00;6.25;;;;;6.72;59.39;100373.78;5075113;27;45519;-61
2022/04/11 05:21:44;;;;;;;;;10.00;7.25;;;;;6.71;59.75;100367.69;5074960;27;45944;-62
2022/04/11 05:24:10;;;;;;;;;6.50;6.00;;;;;6.75;59.11;100375.44;5074107;27;45811;-61
2022/04/11 05:26:35;;;;;;;;;10.25;9.00;;;;;6.73;59.74;100367.66;5074604;27;45623;-63
2022/04/11 05:29:00;;;;;;;;;5.75;5.75;;;;;6.79;59.50;100371.84;5074609;27;45467;-61
2022/04/11 05:31:26;;;;;;;;;8.50;6.00;;;;;6.79;59.55;100372.72;5074499;27;45375;-62
2022/04/11 05:33:51;;;;;;;;;10.75;7.75;;;;;6.79;59.93;100369.22;5073040;27;45333;-63
2022/04/11 05:36:17;;;;;;;;;8.00;7.00;;;;;6.80;59.45;100369.19;5074913;27;45388;-62
2022/04/11 05:38:42;;;;;;;;;8.00;8.00;;;;;6.80;59.02;100370.94;5074835;27;46053;-64
2022/04/11 05:41:08;;;;;;;;;6.25;6.25;;;;;6.83;59.52;100363.88;5074315;27;45437;-62
2022/04/11 05:43:33;;;;;;;;;9.25;9.00;;;;;6.86;59.55;100353.34;5074443;27;45487;-62
2022/04/11 05:46:02;;;;;;;;;8.50;7.75;;;;;6.89;59.66;100352.38;5074776;27;45631;-63
2022/04/11 05:48:28;;;;;;;;;12.00;8.75;;;;;6.92;58.46;100346.22;5074669;27;46546;-63
2022/04/11 05:50:53;;;;;;;;;14.25;14.25;;;;;6.95;59.16;100346.13;5074014;27;45370;-63
2022/04/11 05:53:19;;;;;;;;;4.00;4.00;;;;;6.96;59.17;100351.31;5074128;27;45797;-63
2022/04/11 05:55:44;;;;;;;;;8.00;8.00;;;;;7.00;58.91;100362.53;5074743;28;45277;-64
2022/04/11 05:58:09;;;;;;;;;5.75;5.75;;;;;7.02;59.44;100363.34;5078508;27;46046;-63
2022/04/11 06:00:35;;;;;;;;;7.00;7.00;;;;;7.07;59.20;100369.31;5078682;27;45227;-62
2022/04/11 06:03:00;;;;;;;;;7.00;7.00;;;;;7.08;58.88;100368.41;5077587;27;45354;-63
2022/04/11 06:05:26;;;;;;;;;6.25;5.00;;;;;7.18;59.40;100366.38;5078484;27;45639;-62
2022/04/11 06:07:51;;;;;;;;;9.50;9.25;;;;;7.26;59.49;100371.38;5077491;27;46559;-62
2022/04/11 06:10:16;;;;;;;;;10.50;10.50;;;;;7.35;58.98;100370.25;5078010;27;45479;-62
2022/04/11 06:12:42;;;;;;;;;13.25;11.00;;;;;7.43;59.72;100370.88;5077130;27;45586;-62
2022/04/11 06:15:08;;;;;;;;;9.75;9.75;;;;;7.51;59.25;100366.25;5078725;27;45354;-63
2022/04/11 06:17:33;;;;;;;;;9.00;7.25;;;;;7.56;59.13;100366.13;5077826;27;45667;-62
2022/04/11 06:20:00;;;;;;;;;11.00;10.50;;;;;7.65;59.22;100368.47;5077926;27;45373;-62
2022/04/11 06:22:26;;;;;;;;;7.00;7.00;;;;;7.70;58.16;100368.31;5077356;27;45416;-64
2022/04/11 06:25:01;;;;;;;;;9.00;9.00;;;;;7.78;58.40;100374.16;5077555;27;45433;-63
2022/04/11 06:27:27;;;;;;;;;6.75;6.75;;;;;7.82;57.88;100378.38;5076421;27;45512;-61
2022/04/11 06:29:56;;;;;;;;;7.25;7.25;;;;;7.84;57.86;100367.88;5077696;28;45387;-62
2022/04/11 06:32:28;;;;;;;;;8.75;8.75;;;;;7.87;57.82;100373.84;5077570;27;45515;-62
2022/04/11 06:34:54;;;;;;;;;9.25;8.00;;;;;7.89;57.73;100372.03;5077162;27;45341;-64
2022/04/11 06:37:21;;;;;;;;;11.50;10.00;;;;;7.92;57.46;100367.59;5057261;28;46300;-62
2022/04/11 06:39:47;;;;;;;;;18.25;16.75;;;;;7.94;57.32;100358.81;5073014;28;45464;-63
2022/04/11 06:42:13;;;;;;;;;14.75;11.00;;;;;7.96;56.63;100350.91;5077422;27;45401;-63
2022/04/11 06:44:38;;;;;;;;;13.75;11.50;;;;;7.94;57.62;100347.47;5077556;27;45337;-63
2022/04/11 06:47:04;;;;;;;;;12.00;9.25;;;;;7.99;57.13;100338.56;5077286;27;46341;-63
2022/04/11 06:49:30;;;;;;;;;8.75;8.75;;;;;8.01;57.34;100333.28;5077441;27;45575;-63
2022/04/11 06:51:55;;;;;;;;;8.75;8.25;;;;;8.05;57.01;100327.03;5077658;27;45294;-65
2022/04/11 06:54:21;;;;;;;;;9.75;9.75;;;;;8.12;56.87;100319.81;5076810;27;46029;-68
2022/04/11 06:56:46;;;;;;;;;9.25;9.25;;;;;8.17;56.33;100329.22;5077303;27;46223;-64
2022/04/11 06:59:12;;;;;;;;;12.00;10.00;;;;;8.20;57.24;100325.63;5076998;27;45457;-63
2022/04/11 07:01:37;;;;;;;;;14.00;14.00;;;;;8.23;57.85;100316.81;5076969;27;45568;-62
2022/04/11 07:04:03;;;;;;;;;12.75;12.75;;;;;8.31;57.07;100330.53;5072680;28;45336;-63
2022/04/11 07:06:28;;;;;;;;;16.25;12.75;;;;;8.37;57.24;100327.69;5075133;27;45390;-63
2022/04/11 07:08:54;;;;;;;;;20.00;16.75;;;;;8.44;57.34;100320.44;5076176;27;45383;-64
2022/04/11 07:11:19;;;;;;;;;14.00;12.75;;;;;8.55;57.13;100320.97;5076759;27;45288;-64
2022/04/11 07:13:45;;;;;;;;;13.25;12.25;;;;;8.65;56.33;100320.63;5076695;27;45587;-64
2022/04/11 07:16:10;;;;;;;;;10.75;10.75;;;;;8.70;55.68;100306.44;5076344;27;46196;-59
2022/04/11 07:18:36;;;;;;;;;11.00;10.00;;;;;8.80;55.96;100303.47;5076189;28;45310;-67
2022/04/11 07:21:01;;;;;;;;;9.25;9.25;;;;;8.89;56.20;100295.25;5076356;27;45448;-70
2022/04/11 07:23:27;;;;;;;;;15.00;11.75;;;;;8.99;56.56;100298.41;5076436;28;45544;-66
2022/04/11 07:25:52;;;;;;;;;11.00;10.00;;;;;9.05;56.27;100299.03;5075634;27;48033;-65
2022/04/11 07:28:18;;;;;;;;;10.75;9.50;;;;;9.18;55.33;100295.94;5074319;28;45361;-66
2022/04/11 07:30:43;;;;;;;;;11.50;10.00;;;;;9.24;55.35;100294.81;5075953;27;45401;-70
2022/04/11 07:33:09;;;;;;;;;7.50;7.50;;;;;9.23;55.15;100286.09;5076419;28;45441;-68
2022/04/11 07:35:35;;;;;;;;;9.75;8.25;;;;;9.26;54.92;100283.34;5073839;27;46114;-65
2022/04/11 07:38:01;;;;;;;;;13.50;11.75;;;;;9.31;55.06;100289.28;5091384;27;45303;-73
2022/04/11 07:40:28;;;;;;;;;12.00;9.00;;;;;9.40;54.94;100292.44;5076257;27;45345;-70
2022/04/11 07:42:53;;;;;;;;;9.75;9.75;;;;;9.48;55.56;100287.75;5076356;27;45412;-69
2022/04/11 07:45:22;;;;;;;;;8.50;8.50;;;;;9.55;55.10;100291.00;5076094;27;46344;-73
2022/04/11 07:47:47;;;;;;;;;8.00;7.00;;;;;9.62;55.27;100284.56;5075973;28;45434;-67
2022/04/11 07:50:13;;;;;;;;;11.50;10.50;;;;;9.71;55.14;100293.81;5075896;27;45282;-66
2022/04/11 07:52:40;;;;;;;;;12.25;10.50;;;;;9.79;54.62;100289.97;5076256;27;45881;-71
2022/04/11 07:55:07;;;;;;;;;15.50;13.25;;;;;9.87;55.10;100288.81;5075843;27;46307;-68
2022/04/11 07:57:33;;;;;;;;;11.25;8.00;;;;;9.98;54.57;100291.81;5075654;27;45446;-66
2022/04/11 07:59:58;;;;;;;;;11.25;11.25;;;;;10.08;54.21;100285.25;5074344;28;45311;-66
2022/04/11 08:02:25;;;;;;;;;8.50;8.50;;;;;10.17;54.22;100275.25;5075724;27;45393;-66
2022/04/11 08:04:51;;;;;;;;;9.00;8.00;;;;;10.29;53.94;100281.78;5075372;27;45956;-69
2022/04/11 08:07:17;;;;;;;;;14.75;11.50;;;;;10.39;53.63;100285.72;5075313;27;45462;-69
2022/04/11 08:09:42;;;;;;;;;3.25;3.25;;;;;10.49;53.55;100275.66;5075741;27;45435;-71
2022/04/11 08:12:08;;;;;;;;;8.00;7.00;;;;;10.58;53.44;100267.34;5076644;27;45269;-70
2022/04/11 08:14:34;;;;;;;;;13.25;10.00;;;;;10.72;53.36;100268.50;5075471;27;46641;-66
2022/04/11 08:17:03;;;;;;;;;8.00;8.00;;;;;10.85;53.59;100258.25;5075200;27;45476;-73
2022/04/11 08:19:29;;;;;;;;;7.25;7.25;;;;;10.91;52.27;100261.47;5075442;27;45276;-70
2022/04/11 08:21:55;;;;;;;;;7.50;7.50;;;;;10.98;52.26;100269.91;5075872;27;45503;-72
2022/04/11 08:24:21;;;;;;;;;11.25;9.50;;;;;11.00;52.79;100254.06;5075044;28;46176;-69
2022/04/11 08:26:46;;;;;;;;;14.50;14.00;;;;;11.10;52.79;100257.97;5075338;27;45464;-69
2022/04/11 08:29:11;;;;;;;;;7.25;7.25;;;;;11.23;52.31;100272.25;5075625;27;45464;-71
2022/04/11 08:31:37;;;;;;;;;7.00;6.25;;;;;11.33;51.54;100271.81;5075789;27;45706;-69
2022/04/11 08:34:02;;;;;;;;;7.75;6.75;;;;;11.47;52.21;100271.97;5075101;27;45476;-69
2022/04/11 08:36:28;;;;;;;;;6.75;5.25;;;;;11.57;51.57;100256.59;5073687;27;45764;-73
2022/04/11 08:38:54;;;;;;;;;6.75;4.75;;;;;11.74;51.52;100253.13;5073840;28;45437;-71
2022/04/11 08:41:19;;;;;;;;;6.00;6.00;;;;;11.94;51.21;100256.53;5075733;27;45386;-73
2022/04/11 08:43:45;;;;;;;;;10.00;7.00;;;;;12.15;51.05;100251.09;5075018;27;46288;-75
2022/04/11 08:46:15;;;;;;;;;9.00;7.50;;;;;12.30;51.14;100244.19;5075569;27;45437;-72
2022/04/11 08:48:42;;;;;;;;;8.00;8.00;;;;;12.47;50.64;100243.28;5075566;27;45443;-67
2022/04/11 08:51:08;;;;;;;;;5.75;5.75;;;;;12.53;50.18;100245.56;5075627;27;45521;-73
2022/04/11 08:53:34;;;;;;;;;6.75;6.75;;;;;12.65;50.26;100230.88;5073313;28;46912;-73
2022/04/11 08:55:59;;;;;;;;;8.25;6.50;;;;;12.85;50.02;100235.91;5073354;28;45513;-69
2022/04/11 08:58:25;;;;;;;;;7.00;7.00;;;;;12.92;49.52;100228.53;5074988;27;45328;-73
2022/04/11 09:00:50;;;;;;;;;6.00;6.00;;;;;13.06;49.57;100209.25;5075145;27;45547;-73
2022/04/11 09:03:16;;;;;;;;;7.00;5.50;;;;;13.20;48.87;100215.53;5074356;27;45364;-71
2022/04/11 09:05:41;;;;;;;;;7.00;7.00;;;;;13.30;48.91;100206.16;5074769;27;45316;-68
2022/04/11 09:08:07;;;;;;;;;5.25;5.25;;;;;13.38;48.93;100203.94;5075251;27;45421;-72
2022/04/11 09:10:38;;;;;;;;;9.00;7.75;;;;;13.53;48.56;100206.66;5074821;27;45334;-70
2022/04/11 09:13:06;;;;;;;;;6.75;6.75;;;;;13.67;48.13;100208.47;5074255;27;46560;-66
2022/04/11 09:15:47;;;;;;;;;4.75;4.75;;;;;13.80;47.82;100206.81;5074192;27;45501;-72
2022/04/11 09:18:13;;;;;;;;;7.75;6.25;;;;;13.85;47.80;100206.53;5059676;28;45524;-68
2022/04/11 09:20:43;;;;;;;;;7.00;7.00;;;;;13.95;46.99;100218.25;5074801;27;45626;-66
2022/04/11 09:23:19;;;;;;;;;7.25;7.25;;;;;14.05;46.97;100218.56;5074967;27;45402;-70
2022/04/11 09:25:44;;;;;;;;;7.50;7.25;;;;;14.14;47.04;100203.91;5073017;27;45399;-70
2022/04/11 09:28:12;;;;;;;;;5.25;5.25;;;;;14.16;46.89;100213.47;5075241;27;45199;-76
2022/04/11 09:30:39;;;;;;;;;7.25;6.00;;;;;14.25;46.37;100205.91;5074343;27;45514;-69
2022/04/11 09:33:07;;;;;;;;;8.25;8.25;;;;;14.40;46.95;100210.25;5073739;27;45375;-70
2022/04/11 09:35:39;;;;;;;;;9.00;5.50;;;;;14.44;46.15;100201.16;5073448;27;45383;-65
2022/04/11 09:38:06;;;;;;;;;4.75;4.75;;;;;14.49;45.36;100187.66;5089947;27;45404;-63
2022/04/11 09:40:38;;;;;;;;;14.25;11.50;;;;;14.55;46.04;100191.69;5073434;27;45319;-63
2022/04/11 09:43:04;;;;;;;;;7.00;7.00;;;;;14.66;45.77;100181.28;5073874;27;45395;-65
2022/04/11 09:45:29;;;;;;;;;7.50;5.75;;;;;14.77;46.11;100182.41;5074207;28;45310;-65
2022/04/11 09:48:02;;;;;;;;;13.00;13.00;;;;;14.93;46.34;100172.56;5074451;28;45342;-72
2022/04/11 09:50:29;;;;;;;;;4.00;4.00;;;;;15.16;45.75;100178.13;5073059;27;45255;-71
2022/04/11 09:53:09;;;;;;;;;6.75;6.75;;;;;15.37;45.84;100181.13;5072710;28;47280;-68
2022/04/11 09:55:35;;;;;;;;;8.50;7.00;;;;;15.58;45.01;100183.31;5057564;28;45401;-69
2022/04/11 09:58:03;;;;;;;;;5.50;4.00;;;;;15.72;45.15;100166.47;5074388;27;45457;-74
2022/04/11 10:00:29;;;;;;;;;5.00;5.00;;;;;15.78;44.77;100161.59;5074197;27;45482;-70
2022/04/11 10:02:57;;;;;;;;;10.75;10.75;;;;;15.91;44.42;100158.13;5074558;27;46882;-66
2022/04/11 10:05:24;;;;;;;;;8.75;8.00;;;;;16.04;44.34;100163.44;5073799;27;45485;-68
2022/04/11 10:07:53;;;;;;;;;10.50;8.00;;;;;16.14;44.28;100164.50;5074173;27;45413;-65
2022/04/11 10:10:20;;;;;;;;;5.00;5.00;;;;;16.23;44.05;100176.25;5074086;27;45329;-65
2022/04/11 10:12:46;;;;;;;;;4.50;4.50;;;;;16.30;43.85;100168.72;5073568;27;45437;-70
2022/04/11 10:15:12;;;;;;;;;4.00;4.00;;;;;16.33;43.90;100158.72;5072385;28;45332;-73
2022/04/11 10:17:37;;;;;;;;;4.00;4.00;;;;;16.43;43.84;100164.22;5074297;27;45256;-67
2022/04/11 10:20:04;;;;;;;;;8.25;7.00;;;;;16.48;42.39;100167.38;5074026;27;45410;-68
2022/04/11 10:22:37;;;;;;;;;5.75;5.75;;;;;16.57;43.03;100154.41;5073732;27;46510;-72
2022/04/11 10:25:07;;;;;;;;;5.00;5.00;;;;;16.68;42.17;100164.25;5071730;28;45826;-68
2022/04/11 10:27:34;;;;;;;;;11.25;7.50;;;;;16.74;42.13;100167.31;5074039;27;45311;-68
2022/04/11 10:30:02;;;;;;;;;8.00;6.75;;;;;16.82;41.65;100166.75;5073696;27;45537;-66
2022/04/11 10:32:29;;;;;;;;;4.75;4.75;;;;;16.90;41.87;100166.19;5073299;27;45355;-69
2022/04/11 10:34:54;;;;;;;;;21.75;18.75;;;;;16.97;42.21;100155.97;5073888;28;45189;-75
2022/04/11 10:37:22;;;;;;;;;11.00;8.25;;;;;17.10;42.65;100159.44;5072705;28;45391;-66
2022/04/11 10:39:49;;;;;;;;;3.00;3.00;;;;;17.23;40.88;100146.09;5073477;27;45262;-75
2022/04/11 10:42:19;;;;;;;;;6.00;6.00;;;;;17.34;41.88;100140.81;5073294;28;47747;-67
2022/04/11 10:44:53;;;;;;;;;6.25;4.00;;;;;17.42;41.22;100134.88;5092395;27;45472;-70
2022/04/11 10:47:26;;;;;;;;;4.25;3.50;;;;;17.51;40.51;100125.38;5076505;27;45536;-70
2022/04/11 10:49:53;;;;;;;;;4.00;4.00;;;;;17.59;40.77;100130.94;5076707;27;45216;-71
2022/04/11 10:52:31;;;;;;;;;5.00;4.00;;;;;17.67;41.37;100115.25;5076888;27;46066;-71
2022/04/11 10:55:09;;;;;;;;;9.00;8.00;;;;;17.75;41.11;100108.47;5076614;27;45354;-66
2022/04/11 10:57:39;;;;;;;;;3.00;3.00;;;;;17.73;40.20;100105.09;5091021;27;45652;-66
2022/04/11 11:00:20;;;;;;;;;4.00;4.00;;;;;17.86;40.86;100126.28;5076736;27;45629;-69
2022/04/11 11:03:10;;;;;;;;;3.00;3.00;;;;;17.96;40.45;100127.22;5075858;28;45408;-70
2022/04/11 11:05:41;;;;;;;;;4.75;4.50;;;;;18.01;40.83;100114.44;5092304;27;45766;-67
2022/04/11 11:08:13;;;;;;;;;5.00;4.00;;;;;18.09;39.92;100121.84;5092454;27;45249;-74
2022/04/11 11:10:59;;;;;;;;;4.50;3.00;;;;;18.14;40.31;100114.34;5076935;28;45400;-74
2022/04/11 11:13:36;;;;;;;;;3.00;3.00;;;;;18.23;40.29;100096.75;5076813;28;45393;-72
2022/04/11 11:16:07;;;;;;;;;1.25;1.25;;;;;18.30;39.91;100097.13;5091729;27;45381;-75
2022/04/11 11:18:51;;;;;;;;;4.00;2.25;;;;;18.38;39.89;100098.19;5076269;27;45375;-70
2022/04/11 11:21:16;;;;;;;;;5.50;4.50;;;;;18.47;39.54;100101.06;5075565;27;45437;-76
2022/04/11 11:24:02;;;;;;;;;5.00;4.75;;;;;18.56;40.13;100104.81;5092584;27;46520;-78
2022/04/11 11:26:29;;;;;;;;;4.50;3.75;;;;;18.67;39.22;100107.44;5059946;28;45454;-80